This is the latest recevied weather packets stored in our database for station/object KG7BDA. If no packets are shown the sender has not sent any weather packets the latest 10 day(s).
| Time | Temp. | Humidity | Pressure | Rain* | Wind** | Luminosity | Snow |
|---|---|---|---|---|---|---|---|
| 1778235686 | 10.56° C | 66% | 1015.1 hPa | 0 mm | - | - | - |
| 1778235327 | 11.11° C | 63% | 1015.1 hPa | 0 mm | - | - | - |
| 1778234607 | 11.67° C | 61% | 1015.1 hPa | 0 mm | - | - | - |
| 1778234246 | 12.22° C | 57% | 1015 hPa | 0 mm | - | - | - |
| 1778233887 | 12.22° C | 55% | 1014.8 hPa | 0 mm | - | - | - |
| 1778233527 | 11.67° C | 58% | 1014.9 hPa | 0 mm | - | - | - |
| 1778233167 | 11.67° C | 53% | 1014.8 hPa | 0 mm | - | - | - |
| 1778232806 | 12.22° C | 52% | 1014.8 hPa | 0 mm | - | - | - |
| 1778232446 | 11.67° C | 52% | 1014.8 hPa | 0 mm | - | - | - |
| 1778232087 | 11.67° C | 53% | 1014.8 hPa | 0 mm | - | - | - |
| 1778231727 | 11.67° C | 52% | 1014.7 hPa | 0 mm | - | - | - |
| 1778231006 | 12.22° C | 51% | 1014.5 hPa | 0 mm | - | - | - |
| 1778230646 | 12.22° C | 52% | 1014.6 hPa | 0 mm | - | - | - |
| 1778230287 | 11.11° C | 54% | 1014.6 hPa | 0 mm | - | - | - |
| 1778229927 | 10.56° C | 57% | 1014.6 hPa | 0 mm | - | - | - |
| 1778229206 | 9.44° C | 62% | 1014.4 hPa | 0 mm | - | - | - |
| 1778228846 | 10° C | 60% | 1014.4 hPa | 0 mm | - | - | - |
| 1778228486 | 10° C | 59% | 1014.4 hPa | 0 mm | - | - | - |
| 1778228127 | 11.11° C | 58% | 1014.4 hPa | 0 mm | - | - | - |
| 1778227807 | 11.11° C | 55% | 1014.4 hPa | 0 mm | - | - | - |
| 1778227767 | 11.11° C | 55% | 1014.4 hPa | 0 mm | - | - | - |
| 1778227046 | 11.11° C | 60% | 1014.3 hPa | 0 mm | - | - | - |
| 1778226686 | 11.67° C | 57% | 1014.3 hPa | 0 mm | - | - | - |
| 1778226327 | 11.11° C | 58% | 1014.4 hPa | 0 mm | - | - | - |
| 1778225967 | 11.11° C | 59% | 1014.2 hPa | 0 mm | - | - | - |
* Rain latest hour (hover to see other rain measurements)
** Current wind speed in m/s (hover to see current wind gust speed)